sensor_id;sensor_type;location;lat;lon;timestamp;P1;P2;P0
24012;PMS7003;12220;50.194;18.948;2022-10-31T00:01:00;13;10;9
24012;PMS7003;12220;50.194;18.948;2022-10-31T00:03:11;11;11;8
24012;PMS7003;12220;50.194;18.948;2022-10-31T00:05:12;12;11;8
24012;PMS7003;12220;50.194;18.948;2022-10-31T00:07:13;12;12;9
24012;PMS7003;12220;50.194;18.948;2022-10-31T00:09:14;17;11;9
24012;PMS7003;12220;50.194;18.948;2022-10-31T00:11:26;15;13;11
24012;PMS7003;12220;50.194;18.948;2022-10-31T00:13:28;12;12;8
24012;PMS7003;12220;50.194;18.948;2022-10-31T00:15:29;13;12;9
24012;PMS7003;12220;50.194;18.948;2022-10-31T00:17:30;11;11;10
24012;PMS7003;12220;50.194;18.948;2022-10-31T00:19:41;18;14;10
24012;PMS7003;12220;50.194;18.948;2022-10-31T00:21:42;16;13;10
24012;PMS7003;12220;50.194;18.948;2022-10-31T00:23:43;14;14;10
24012;PMS7003;12220;50.194;18.948;2022-10-31T00:25:44;15;13;10
24012;PMS7003;12220;50.194;18.948;2022-10-31T00:27:55;13;13;10
24012;PMS7003;12220;50.194;18.948;2022-10-31T00:29:57;12;11;8
24012;PMS7003;12220;50.194;18.948;2022-10-31T00:31:58;9;9;6
24012;PMS7003;12220;50.194;18.948;2022-10-31T00:33:59;14;8;6
24012;PMS7003;12220;50.194;18.948;2022-10-31T00:36:12;10;10;9
24012;PMS7003;12220;50.194;18.948;2022-10-31T00:38:15;16;15;10
24012;PMS7003;12220;50.194;18.948;2022-10-31T00:40:16;15;14;10
24012;PMS7003;12220;50.194;18.948;2022-10-31T00:42:17;12;12;9
24012;PMS7003;12220;50.194;18.948;2022-10-31T00:44:25;10;10;8
24012;PMS7003;12220;50.194;18.948;2022-10-31T00:46:27;12;12;7
24012;PMS7003;12220;50.194;18.948;2022-10-31T00:48:31;13;13;8
24012;PMS7003;12220;50.194;18.948;2022-10-31T00:50:32;14;9;8
24012;PMS7003;12220;50.194;18.948;2022-10-31T00:52:40;11;8;7
24012;PMS7003;12220;50.194;18.948;2022-10-31T00:54:41;12;11;9
24012;PMS7003;12220;50.194;18.948;2022-10-31T00:56:43;9;9;8
24012;PMS7003;12220;50.194;18.948;2022-10-31T00:58:44;10;10;8
24012;PMS7003;12220;50.194;18.948;2022-10-31T01:00:55;10;10;8
24012;PMS7003;12220;50.194;18.948;2022-10-31T01:02:57;9;9;7
24012;PMS7003;12220;50.194;18.948;2022-10-31T01:04:58;12;12;9
24012;PMS7003;12220;50.194;18.948;2022-10-31T01:06:59;9;9;7
24012;PMS7003;12220;50.194;18.948;2022-10-31T01:09:10;10;9;7
24012;PMS7003;12220;50.194;18.948;2022-10-31T01:11:13;10;10;8
24012;PMS7003;12220;50.194;18.948;2022-10-31T01:13:19;10;10;7
24012;PMS7003;12220;50.194;18.948;2022-10-31T01:15:21;11;11;9
24012;PMS7003;12220;50.194;18.948;2022-10-31T01:17:25;8;8;6
24012;PMS7003;12220;50.194;18.948;2022-10-31T01:19:26;11;11;7
24012;PMS7003;12220;50.194;18.948;2022-10-31T01:21:28;7;7;7
24012;PMS7003;12220;50.194;18.948;2022-10-31T01:23:30;17;9;6
24012;PMS7003;12220;50.194;18.948;2022-10-31T01:25:40;10;9;7
24012;PMS7003;12220;50.194;18.948;2022-10-31T01:27:43;8;8;6
24012;PMS7003;12220;50.194;18.948;2022-10-31T01:29:44;8;8;7
24012;PMS7003;12220;50.194;18.948;2022-10-31T01:31:46;9;9;7
24012;PMS7003;12220;50.194;18.948;2022-10-31T01:33:55;10;8;6
24012;PMS7003;12220;50.194;18.948;2022-10-31T01:35:57;11;11;8
24012;PMS7003;12220;50.194;18.948;2022-10-31T01:37:59;12;11;6
24012;PMS7003;12220;50.194;18.948;2022-10-31T01:40:00;9;8;5
24012;PMS7003;12220;50.194;18.948;2022-10-31T01:42:15;7;7;6
24012;PMS7003;12220;50.194;18.948;2022-10-31T01:46:34;9;9;7
24012;PMS7003;12220;50.194;18.948;2022-10-31T01:48:39;12;10;8
24012;PMS7003;12220;50.194;18.948;2022-10-31T01:50:42;8;8;7
24012;PMS7003;12220;50.194;18.948;2022-10-31T01:52:57;11;11;7
24012;PMS7003;12220;50.194;18.948;2022-10-31T01:55:02;12;9;7
24012;PMS7003;12220;50.194;18.948;2022-10-31T01:57:10;12;12;9
24012;PMS7003;12220;50.194;18.948;2022-10-31T01:59:15;13;13;9
24012;PMS7003;12220;50.194;18.948;2022-10-31T02:01:20;13;12;9
24012;PMS7003;12220;50.194;18.948;2022-10-31T02:03:21;10;9;7
24012;PMS7003;12220;50.194;18.948;2022-10-31T02:05:24;15;12;7
24012;PMS7003;12220;50.194;18.948;2022-10-31T02:07:32;7;7;6
24012;PMS7003;12220;50.194;18.948;2022-10-31T02:09:40;10;9;6
24012;PMS7003;12220;50.194;18.948;2022-10-31T02:11:54;11;11;9
24012;PMS7003;12220;50.194;18.948;2022-10-31T02:13:58;9;9;7
24012;PMS7003;12220;50.194;18.948;2022-10-31T02:16:02;10;10;7
24012;PMS7003;12220;50.194;18.948;2022-10-31T02:18:03;11;10;8
24012;PMS7003;12220;50.194;18.948;2022-10-31T02:22:30;10;10;8
24012;PMS7003;12220;50.194;18.948;2022-10-31T02:27:13;10;10;8
24012;PMS7003;12220;50.194;18.948;2022-10-31T02:34:19;9;7;6
24012;PMS7003;12220;50.194;18.948;2022-10-31T02:43:46;7;7;6
24012;PMS7003;12220;50.194;18.948;2022-10-31T02:46:08;12;9;6
24012;PMS7003;12220;50.194;18.948;2022-10-31T02:48:25;10;10;8
24012;PMS7003;12220;50.194;18.948;2022-10-31T02:50:31;11;10;9
24012;PMS7003;12220;50.194;18.948;2022-10-31T02:52:35;6;6;6
24012;PMS7003;12220;50.194;18.948;2022-10-31T02:54:36;11;10;7
24012;PMS7003;12220;50.194;18.948;2022-10-31T02:56:40;10;8;7
24012;PMS7003;12220;50.194;18.948;2022-10-31T02:58:51;11;9;7
24012;PMS7003;12220;50.194;18.948;2022-10-31T03:09:49;11;10;7
24012;PMS7003;12220;50.194;18.948;2022-10-31T03:12:04;8;8;5
24012;PMS7003;12220;50.194;18.948;2022-10-31T03:14:20;12;10;5
24012;PMS7003;12220;50.194;18.948;2022-10-31T03:18:33;14;13;8
24012;PMS7003;12220;50.194;18.948;2022-10-31T03:20:42;6;6;3
24012;PMS7003;12220;50.194;18.948;2022-10-31T03:22:50;11;9;6
24012;PMS7003;12220;50.194;18.948;2022-10-31T03:24:53;9;8;7
24012;PMS7003;12220;50.194;18.948;2022-10-31T03:26:57;11;8;8
24012;PMS7003;12220;50.194;18.948;2022-10-31T03:31:11;11;11;8
24012;PMS7003;12220;50.194;18.948;2022-10-31T03:33:25;11;11;9
24012;PMS7003;12220;50.194;18.948;2022-10-31T03:35:29;12;9;7
24012;PMS7003;12220;50.194;18.948;2022-10-31T03:37:33;19;14;10
24012;PMS7003;12220;50.194;18.948;2022-10-31T03:39:36;13;11;7
24012;PMS7003;12220;50.194;18.948;2022-10-31T03:41:41;11;8;7
24012;PMS7003;12220;50.194;18.948;2022-10-31T03:43:48;7;7;6
24012;PMS7003;12220;50.194;18.948;2022-10-31T03:45:58;11;11;9
24012;PMS7003;12220;50.194;18.948;2022-10-31T03:48:00;11;11;7
24012;PMS7003;12220;50.194;18.948;2022-10-31T03:50:04;6;6;6
24012;PMS7003;12220;50.194;18.948;2022-10-31T03:56:33;10;10;5
24012;PMS7003;12220;50.194;18.948;2022-10-31T03:59:00;16;11;7
24012;PMS7003;12220;50.194;18.948;2022-10-31T04:00:50;8;8;7
24012;PMS7003;12220;50.194;18.948;2022-10-31T04:02:58;10;10;8
24012;PMS7003;12220;50.194;18.948;2022-10-31T04:05:06;9;9;7
24012;PMS7003;12220;50.194;18.948;2022-10-31T04:07:11;8;7;5
24012;PMS7003;12220;50.194;18.948;2022-10-31T04:09:14;11;11;7
24012;PMS7003;12220;50.194;18.948;2022-10-31T04:11:18;14;12;9
24012;PMS7003;12220;50.194;18.948;2022-10-31T04:13:28;7;7;5
24012;PMS7003;12220;50.194;18.948;2022-10-31T04:15:32;7;7;4
24012;PMS7003;12220;50.194;18.948;2022-10-31T04:17:37;8;8;6
24012;PMS7003;12220;50.194;18.948;2022-10-31T04:19:51;8;8;5
24012;PMS7003;12220;50.194;18.948;2022-10-31T04:21:52;10;10;8
24012;PMS7003;12220;50.194;18.948;2022-10-31T04:23:53;17;14;10
24012;PMS7003;12220;50.194;18.948;2022-10-31T04:25:54;12;11;8
24012;PMS7003;12220;50.194;18.948;2022-10-31T04:28:06;12;10;7
24012;PMS7003;12220;50.194;18.948;2022-10-31T04:30:07;9;8;6
24012;PMS7003;12220;50.194;18.948;2022-10-31T04:32:09;13;8;7
24012;PMS7003;12220;50.194;18.948;2022-10-31T04:34:10;11;10;9
24012;PMS7003;12220;50.194;18.948;2022-10-31T04:36:21;11;11;7
24012;PMS7003;12220;50.194;18.948;2022-10-31T04:38:22;11;11;8
24012;PMS7003;12220;50.194;18.948;2022-10-31T04:40:23;13;9;7
24012;PMS7003;12220;50.194;18.948;2022-10-31T04:42:24;9;9;7
24012;PMS7003;12220;50.194;18.948;2022-10-31T04:44:36;9;6;5
24012;PMS7003;12220;50.194;18.948;2022-10-31T04:46:37;9;9;6
24012;PMS7003;12220;50.194;18.948;2022-10-31T04:48:38;8;8;6
24012;PMS7003;12220;50.194;18.948;2022-10-31T04:50:39;10;8;5
24012;PMS7003;12220;50.194;18.948;2022-10-31T04:52:51;13;11;9
24012;PMS7003;12220;50.194;18.948;2022-10-31T04:54:52;11;11;9
24012;PMS7003;12220;50.194;18.948;2022-10-31T04:56:53;13;10;7
24012;PMS7003;12220;50.194;18.948;2022-10-31T04:58:54;8;8;6
24012;PMS7003;12220;50.194;18.948;2022-10-31T05:01:06;7;7;4
24012;PMS7003;12220;50.194;18.948;2022-10-31T05:03:07;12;10;7
24012;PMS7003;12220;50.194;18.948;2022-10-31T05:05:08;10;9;8
24012;PMS7003;12220;50.194;18.948;2022-10-31T05:07:09;11;9;6
24012;PMS7003;12220;50.194;18.948;2022-10-31T05:09:21;12;12;7
24012;PMS7003;12220;50.194;18.948;2022-10-31T05:11:22;13;10;7
24012;PMS7003;12220;50.194;18.948;2022-10-31T05:13:23;9;8;6
24012;PMS7003;12220;50.194;18.948;2022-10-31T05:15:25;12;11;7
24012;PMS7003;12220;50.194;18.948;2022-10-31T05:17:36;13;11;7
24012;PMS7003;12220;50.194;18.948;2022-10-31T05:19:37;8;8;6
24012;PMS7003;12220;50.194;18.948;2022-10-31T05:21:38;15;10;7
24012;PMS7003;12220;50.194;18.948;2022-10-31T05:23:42;11;11;8
24012;PMS7003;12220;50.194;18.948;2022-10-31T05:25:51;7;7;6
24012;PMS7003;12220;50.194;18.948;2022-10-31T05:27:52;14;10;6
24012;PMS7003;12220;50.194;18.948;2022-10-31T05:29:54;12;8;7
24012;PMS7003;12220;50.194;18.948;2022-10-31T05:31:56;12;10;7
24012;PMS7003;12220;50.194;18.948;2022-10-31T05:34:06;17;14;9
24012;PMS7003;12220;50.194;18.948;2022-10-31T05:36:07;10;9;6
24012;PMS7003;12220;50.194;18.948;2022-10-31T05:38:08;12;12;7
24012;PMS7003;12220;50.194;18.948;2022-10-31T05:40:10;14;10;8
24012;PMS7003;12220;50.194;18.948;2022-10-31T05:42:21;11;9;8
24012;PMS7003;12220;50.194;18.948;2022-10-31T05:44:22;10;10;8
24012;PMS7003;12220;50.194;18.948;2022-10-31T05:46:23;8;8;4
24012;PMS7003;12220;50.194;18.948;2022-10-31T05:48:24;12;11;8
24012;PMS7003;12220;50.194;18.948;2022-10-31T05:50:36;10;10;7
24012;PMS7003;12220;50.194;18.948;2022-10-31T05:52:37;13;10;7
24012;PMS7003;12220;50.194;18.948;2022-10-31T05:54:38;14;13;8
24012;PMS7003;12220;50.194;18.948;2022-10-31T05:56:39;12;12;8
24012;PMS7003;12220;50.194;18.948;2022-10-31T05:58:51;14;12;6
24012;PMS7003;12220;50.194;18.948;2022-10-31T06:00:52;11;10;8
24012;PMS7003;12220;50.194;18.948;2022-10-31T06:05:05;12;12;8
24012;PMS7003;12220;50.194;18.948;2022-10-31T06:07:07;12;12;9
24012;PMS7003;12220;50.194;18.948;2022-10-31T06:09:08;16;16;10
24012;PMS7003;12220;50.194;18.948;2022-10-31T06:11:09;16;10;9
24012;PMS7003;12220;50.194;18.948;2022-10-31T06:13:11;16;16;9
24012;PMS7003;12220;50.194;18.948;2022-10-31T06:15:21;17;13;9
24012;PMS7003;12220;50.194;18.948;2022-10-31T06:17:22;18;13;8
24012;PMS7003;12220;50.194;18.948;2022-10-31T06:19:23;18;15;11
24012;PMS7003;12220;50.194;18.948;2022-10-31T06:21:26;11;9;6
24012;PMS7003;12220;50.194;18.948;2022-10-31T06:23:36;16;13;9
24012;PMS7003;12220;50.194;18.948;2022-10-31T06:25:40;17;13;9
24012;PMS7003;12220;50.194;18.948;2022-10-31T06:27:41;10;10;7
24012;PMS7003;12220;50.194;18.948;2022-10-31T06:29:43;12;11;8
24012;PMS7003;12220;50.194;18.948;2022-10-31T06:31:51;11;9;8
24012;PMS7003;12220;50.194;18.948;2022-10-31T06:33:52;11;10;6
24012;PMS7003;12220;50.194;18.948;2022-10-31T06:35:54;15;13;9
24012;PMS7003;12220;50.194;18.948;2022-10-31T06:37:55;12;11;7
24012;PMS7003;12220;50.194;18.948;2022-10-31T06:40:06;10;10;7
24012;PMS7003;12220;50.194;18.948;2022-10-31T06:42:07;14;11;8
24012;PMS7003;12220;50.194;18.948;2022-10-31T06:44:09;10;10;7
24012;PMS7003;12220;50.194;18.948;2022-10-31T06:46:10;14;13;9
24012;PMS7003;12220;50.194;18.948;2022-10-31T06:48:21;11;11;6
24012;PMS7003;12220;50.194;18.948;2022-10-31T06:50:22;14;13;8
24012;PMS7003;12220;50.194;18.948;2022-10-31T06:52:24;14;13;10
24012;PMS7003;12220;50.194;18.948;2022-10-31T06:54:25;14;14;12
24012;PMS7003;12220;50.194;18.948;2022-10-31T06:56:36;18;16;9
24012;PMS7003;12220;50.194;18.948;2022-10-31T06:58:37;17;16;9
24012;PMS7003;12220;50.194;18.948;2022-10-31T07:00:38;16;14;11
24012;PMS7003;12220;50.194;18.948;2022-10-31T07:02:39;16;15;11
24012;PMS7003;12220;50.194;18.948;2022-10-31T07:04:51;17;13;10
24012;PMS7003;12220;50.194;18.948;2022-10-31T07:06:52;15;13;8
24012;PMS7003;12220;50.194;18.948;2022-10-31T07:08:53;18;15;10
24012;PMS7003;12220;50.194;18.948;2022-10-31T07:10:55;15;15;12
24012;PMS7003;12220;50.194;18.948;2022-10-31T07:13:06;14;14;12
24012;PMS7003;12220;50.194;18.948;2022-10-31T07:15:14;12;12;8
24012;PMS7003;12220;50.194;18.948;2022-10-31T07:17:15;18;18;12
24012;PMS7003;12220;50.194;18.948;2022-10-31T07:19:17;24;18;13
24012;PMS7003;12220;50.194;18.948;2022-10-31T07:21:21;19;19;12
24012;PMS7003;12220;50.194;18.948;2022-10-31T07:23:22;15;14;11
24012;PMS7003;12220;50.194;18.948;2022-10-31T07:25:23;24;21;15
24012;PMS7003;12220;50.194;18.948;2022-10-31T07:27:25;19;18;13
24012;PMS7003;12220;50.194;18.948;2022-10-31T07:29:36;23;21;11
24012;PMS7003;12220;50.194;18.948;2022-10-31T07:31:37;24;21;14
24012;PMS7003;12220;50.194;18.948;2022-10-31T07:33:38;24;21;16
24012;PMS7003;12220;50.194;18.948;2022-10-31T07:35:40;30;26;18
24012;PMS7003;12220;50.194;18.948;2022-10-31T07:37:51;37;29;19
24012;PMS7003;12220;50.194;18.948;2022-10-31T07:39:52;33;29;19
24012;PMS7003;12220;50.194;18.948;2022-10-31T07:41:54;31;28;19
24012;PMS7003;12220;50.194;18.948;2022-10-31T07:43:55;29;25;19
24012;PMS7003;12220;50.194;18.948;2022-10-31T07:46:06;33;28;18
24012;PMS7003;12220;50.194;18.948;2022-10-31T07:48:10;29;24;17
24012;PMS7003;12220;50.194;18.948;2022-10-31T07:50:12;34;26;18
24012;PMS7003;12220;50.194;18.948;2022-10-31T07:52:16;29;26;19
24012;PMS7003;12220;50.194;18.948;2022-10-31T07:54:21;24;22;16
24012;PMS7003;12220;50.194;18.948;2022-10-31T07:56:22;23;23;16
24012;PMS7003;12220;50.194;18.948;2022-10-31T07:58:23;27;26;18
24012;PMS7003;12220;50.194;18.948;2022-10-31T08:00:26;29;27;18
24012;PMS7003;12220;50.194;18.948;2022-10-31T08:02:36;25;20;14
24012;PMS7003;12220;50.194;18.948;2022-10-31T08:04:37;22;22;16
24012;PMS7003;12220;50.194;18.948;2022-10-31T08:06:38;35;29;19
24012;PMS7003;12220;50.194;18.948;2022-10-31T08:08:39;24;23;16
24012;PMS7003;12220;50.194;18.948;2022-10-31T08:10:51;31;29;20
24012;PMS7003;12220;50.194;18.948;2022-10-31T08:15:00;31;28;20
24012;PMS7003;12220;50.194;18.948;2022-10-31T08:17:02;35;25;17
24012;PMS7003;12220;50.194;18.948;2022-10-31T08:19:06;32;31;19
24012;PMS7003;12220;50.194;18.948;2022-10-31T08:21:07;30;28;18
24012;PMS7003;12220;50.194;18.948;2022-10-31T08:23:08;35;30;21
24012;PMS7003;12220;50.194;18.948;2022-10-31T08:25:11;37;32;21
24012;PMS7003;12220;50.194;18.948;2022-10-31T08:27:22;37;33;21
24012;PMS7003;12220;50.194;18.948;2022-10-31T08:29:24;32;30;22
24012;PMS7003;12220;50.194;18.948;2022-10-31T08:31:26;29;27;19
24012;PMS7003;12220;50.194;18.948;2022-10-31T08:33:28;27;26;18
24012;PMS7003;12220;50.194;18.948;2022-10-31T08:35:39;32;29;19
24012;PMS7003;12220;50.194;18.948;2022-10-31T08:37:41;30;26;19
24012;PMS7003;12220;50.194;18.948;2022-10-31T08:39:42;23;22;16
24012;PMS7003;12220;50.194;18.948;2022-10-31T08:41:44;25;22;18
24012;PMS7003;12220;50.194;18.948;2022-10-31T08:43:54;28;27;19
24012;PMS7003;12220;50.194;18.948;2022-10-31T08:45:55;24;23;17
24012;PMS7003;12220;50.194;18.948;2022-10-31T08:47:57;19;19;14
24012;PMS7003;12220;50.194;18.948;2022-10-31T08:49:59;27;26;17
24012;PMS7003;12220;50.194;18.948;2022-10-31T08:52:09;23;21;18
24012;PMS7003;12220;50.194;18.948;2022-10-31T08:54:10;26;24;17
24012;PMS7003;12220;50.194;18.948;2022-10-31T08:56:12;33;27;17
24012;PMS7003;12220;50.194;18.948;2022-10-31T08:58:15;24;23;15
24012;PMS7003;12220;50.194;18.948;2022-10-31T09:00:26;23;22;17
24012;PMS7003;12220;50.194;18.948;2022-10-31T09:02:28;27;26;19
24012;PMS7003;12220;50.194;18.948;2022-10-31T09:04:29;26;26;18
24012;PMS7003;12220;50.194;18.948;2022-10-31T09:06:30;23;23;16
24012;PMS7003;12220;50.194;18.948;2022-10-31T09:08:41;28;22;18
24012;PMS7003;12220;50.194;18.948;2022-10-31T09:10:42;22;20;14
24012;PMS7003;12220;50.194;18.948;2022-10-31T09:12:45;25;25;17
24012;PMS7003;12220;50.194;18.948;2022-10-31T09:14:46;27;22;15
24012;PMS7003;12220;50.194;18.948;2022-10-31T09:16:57;35;30;20
24012;PMS7003;12220;50.194;18.948;2022-10-31T09:18:58;26;25;15
24012;PMS7003;12220;50.194;18.948;2022-10-31T09:20:59;27;26;15
24012;PMS7003;12220;50.194;18.948;2022-10-31T09:23:05;24;21;13
24012;PMS7003;12220;50.194;18.948;2022-10-31T09:25:11;18;18;15
24012;PMS7003;12220;50.194;18.948;2022-10-31T09:27:12;19;18;14
24012;PMS7003;12220;50.194;18.948;2022-10-31T09:29:14;21;20;16
24012;PMS7003;12220;50.194;18.948;2022-10-31T09:31:15;19;18;13
24012;PMS7003;12220;50.194;18.948;2022-10-31T09:33:26;17;15;12
24012;PMS7003;12220;50.194;18.948;2022-10-31T09:35:27;15;15;9
24012;PMS7003;12220;50.194;18.948;2022-10-31T09:37:29;15;15;12
24012;PMS7003;12220;50.194;18.948;2022-10-31T09:39:30;12;12;9
24012;PMS7003;12220;50.194;18.948;2022-10-31T09:53:20;14;13;9
24012;PMS7003;12220;50.194;18.948;2022-10-31T09:57:39;10;9;7
24012;PMS7003;12220;50.194;18.948;2022-10-31T09:59:43;14;13;11
24012;PMS7003;12220;50.194;18.948;2022-10-31T10:02:37;14;13;9
24012;PMS7003;12220;50.194;18.948;2022-10-31T10:04:23;11;11;7
24012;PMS7003;12220;50.194;18.948;2022-10-31T10:06:36;9;8;7
24012;PMS7003;12220;50.194;18.948;2022-10-31T10:08:44;14;9;8
24012;PMS7003;12220;50.194;18.948;2022-10-31T10:13:02;8;8;7
24012;PMS7003;12220;50.194;18.948;2022-10-31T10:19:43;16;15;10
24012;PMS7003;12220;50.194;18.948;2022-10-31T10:22:01;11;11;8
24012;PMS7003;12220;50.194;18.948;2022-10-31T10:26:40;12;12;8
24012;PMS7003;12220;50.194;18.948;2022-10-31T10:28:47;12;10;7
24012;PMS7003;12220;50.194;18.948;2022-10-31T10:30:59;14;13;10
24012;PMS7003;12220;50.194;18.948;2022-10-31T10:33:14;11;11;9
24012;PMS7003;12220;50.194;18.948;2022-10-31T10:35:24;7;7;5
24012;PMS7003;12220;50.194;18.948;2022-10-31T10:37:32;12;9;7
24012;PMS7003;12220;50.194;18.948;2022-10-31T10:39:44;9;9;6
24012;PMS7003;12220;50.194;18.948;2022-10-31T10:41:49;11;11;7
24012;PMS7003;12220;50.194;18.948;2022-10-31T10:44:04;12;11;7
24012;PMS7003;12220;50.194;18.948;2022-10-31T10:50:48;12;11;8
24012;PMS7003;12220;50.194;18.948;2022-10-31T10:57:39;8;8;6
24012;PMS7003;12220;50.194;18.948;2022-10-31T10:59:55;9;9;7
24012;PMS7003;12220;50.194;18.948;2022-10-31T11:01:56;6;5;5
24012;PMS7003;12220;50.194;18.948;2022-10-31T11:03:59;18;13;10
24012;PMS7003;12220;50.194;18.948;2022-10-31T11:06:03;12;11;9
24012;PMS7003;12220;50.194;18.948;2022-10-31T11:08:09;9;7;6
24012;PMS7003;12220;50.194;18.948;2022-10-31T11:10:12;11;9;8
24012;PMS7003;12220;50.194;18.948;2022-10-31T11:12:19;8;7;6
24012;PMS7003;12220;50.194;18.948;2022-10-31T11:14:23;10;7;6
24012;PMS7003;12220;50.194;18.948;2022-10-31T11:16:29;9;9;6
24012;PMS7003;12220;50.194;18.948;2022-10-31T11:18:46;9;7;6
24012;PMS7003;12220;50.194;18.948;2022-10-31T11:20:52;9;9;7
24012;PMS7003;12220;50.194;18.948;2022-10-31T11:23:04;7;7;6
24012;PMS7003;12220;50.194;18.948;2022-10-31T11:27:19;9;9;7
24012;PMS7003;12220;50.194;18.948;2022-10-31T11:29:23;6;6;6
24012;PMS7003;12220;50.194;18.948;2022-10-31T11:31:25;7;5;5
24012;PMS7003;12220;50.194;18.948;2022-10-31T11:33:30;9;9;7
24012;PMS7003;12220;50.194;18.948;2022-10-31T11:35:34;7;6;5
24012;PMS7003;12220;50.194;18.948;2022-10-31T11:37:41;8;8;5
24012;PMS7003;12220;50.194;18.948;2022-10-31T11:39:45;8;7;6
24012;PMS7003;12220;50.194;18.948;2022-10-31T11:41:54;5;5;4
24012;PMS7003;12220;50.194;18.948;2022-10-31T11:44:05;7;7;6
24012;PMS7003;12220;50.194;18.948;2022-10-31T11:46:18;12;8;6
24012;PMS7003;12220;50.194;18.948;2022-10-31T11:48:23;7;7;7
24012;PMS7003;12220;50.194;18.948;2022-10-31T11:50:32;13;11;8
24012;PMS7003;12220;50.194;18.948;2022-10-31T11:52:37;8;8;7
24012;PMS7003;12220;50.194;18.948;2022-10-31T11:56:50;11;9;7
24012;PMS7003;12220;50.194;18.948;2022-10-31T11:58:55;9;9;7
24012;PMS7003;12220;50.194;18.948;2022-10-31T12:00:58;7;7;6
24012;PMS7003;12220;50.194;18.948;2022-10-31T12:07:28;7;7;6
24012;PMS7003;12220;50.194;18.948;2022-10-31T12:09:30;6;5;5
24012;PMS7003;12220;50.194;18.948;2022-10-31T12:13:59;10;7;5
24012;PMS7003;12220;50.194;18.948;2022-10-31T12:16:08;6;5;4
24012;PMS7003;12220;50.194;18.948;2022-10-31T12:32:15;9;6;5
24012;PMS7003;12220;50.194;18.948;2022-10-31T12:34:52;6;6;6
24012;PMS7003;12220;50.194;18.948;2022-10-31T12:41:39;16;12;10
24012;PMS7003;12220;50.194;18.948;2022-10-31T12:43:57;8;8;8
24012;PMS7003;12220;50.194;18.948;2022-10-31T12:46:07;9;9;6
24012;PMS7003;12220;50.194;18.948;2022-10-31T12:50:40;10;10;8
24012;PMS7003;12220;50.194;18.948;2022-10-31T12:57:21;9;8;5
24012;PMS7003;12220;50.194;18.948;2022-10-31T12:59:30;12;10;8
24012;PMS7003;12220;50.194;18.948;2022-10-31T13:01:45;13;13;10
24012;PMS7003;12220;50.194;18.948;2022-10-31T13:06:07;7;7;5
24012;PMS7003;12220;50.194;18.948;2022-10-31T13:10:24;9;7;6
24012;PMS7003;12220;50.194;18.948;2022-10-31T13:12:41;11;9;7
24012;PMS7003;12220;50.194;18.948;2022-10-31T13:14:46;7;7;5
24012;PMS7003;12220;50.194;18.948;2022-10-31T13:16:52;16;12;10
24012;PMS7003;12220;50.194;18.948;2022-10-31T13:19:01;12;11;10
24012;PMS7003;12220;50.194;18.948;2022-10-31T13:21:20;11;9;8
24012;PMS7003;12220;50.194;18.948;2022-10-31T13:23:31;7;7;6
24012;PMS7003;12220;50.194;18.948;2022-10-31T13:25:40;9;7;7
24012;PMS7003;12220;50.194;18.948;2022-10-31T13:32:07;9;8;6
24012;PMS7003;12220;50.194;18.948;2022-10-31T13:34:10;11;8;4
24012;PMS7003;12220;50.194;18.948;2022-10-31T13:41:13;8;7;5
24012;PMS7003;12220;50.194;18.948;2022-10-31T13:45:50;12;12;7
24012;PMS7003;12220;50.194;18.948;2022-10-31T13:52:23;10;10;7
24012;PMS7003;12220;50.194;18.948;2022-10-31T13:56:34;10;8;7
24012;PMS7003;12220;50.194;18.948;2022-10-31T13:58:36;9;8;6
24012;PMS7003;12220;50.194;18.948;2022-10-31T14:00:37;6;6;5
24012;PMS7003;12220;50.194;18.948;2022-10-31T14:02:43;7;7;6
24012;PMS7003;12220;50.194;18.948;2022-10-31T14:04:50;4;4;4
24012;PMS7003;12220;50.194;18.948;2022-10-31T14:06:56;6;6;5
24012;PMS7003;12220;50.194;18.948;2022-10-31T14:09:14;6;6;5
24012;PMS7003;12220;50.194;18.948;2022-10-31T14:11:21;8;8;6
24012;PMS7003;12220;50.194;18.948;2022-10-31T14:15:43;8;8;6
24012;PMS7003;12220;50.194;18.948;2022-10-31T14:17:54;4;4;3
24012;PMS7003;12220;50.194;18.948;2022-10-31T14:26:33;6;6;5
24012;PMS7003;12220;50.194;18.948;2022-10-31T14:28:37;6;4;4
24012;PMS7003;12220;50.194;18.948;2022-10-31T14:30:38;6;6;6
24012;PMS7003;12220;50.194;18.948;2022-10-31T14:32:39;5;5;4
24012;PMS7003;12220;50.194;18.948;2022-10-31T14:41:41;6;6;4
24012;PMS7003;12220;50.194;18.948;2022-10-31T14:44:04;5;5;4
24012;PMS7003;12220;50.194;18.948;2022-10-31T14:51:01;9;9;8
24012;PMS7003;12220;50.194;18.948;2022-10-31T14:53:12;9;6;6
24012;PMS7003;12220;50.194;18.948;2022-10-31T14:55:19;7;7;6
24012;PMS7003;12220;50.194;18.948;2022-10-31T14:57:25;9;9;6
24012;PMS7003;12220;50.194;18.948;2022-10-31T14:59:31;8;7;5
24012;PMS7003;12220;50.194;18.948;2022-10-31T15:01:52;9;7;6
24012;PMS7003;12220;50.194;18.948;2022-10-31T15:06:28;6;6;5
24012;PMS7003;12220;50.194;18.948;2022-10-31T15:10:48;8;6;5
24012;PMS7003;12220;50.194;18.948;2022-10-31T15:12:49;3;3;3
24012;PMS7003;12220;50.194;18.948;2022-10-31T15:14:53;4;4;4
24012;PMS7003;12220;50.194;18.948;2022-10-31T15:16:59;4;4;3
24012;PMS7003;12220;50.194;18.948;2022-10-31T15:19:03;4;4;4
24012;PMS7003;12220;50.194;18.948;2022-10-31T15:21:07;5;5;5
24012;PMS7003;12220;50.194;18.948;2022-10-31T15:23:11;7;6;5
24012;PMS7003;12220;50.194;18.948;2022-10-31T15:25:30;5;4;3
24012;PMS7003;12220;50.194;18.948;2022-10-31T15:27:35;5;4;3
24012;PMS7003;12220;50.194;18.948;2022-10-31T15:29:36;4;4;3
24012;PMS7003;12220;50.194;18.948;2022-10-31T15:31:49;5;5;4
24012;PMS7003;12220;50.194;18.948;2022-10-31T15:33:52;4;4;4
24012;PMS7003;12220;50.194;18.948;2022-10-31T15:36:05;4;4;4
24012;PMS7003;12220;50.194;18.948;2022-10-31T15:38:07;6;4;4
24012;PMS7003;12220;50.194;18.948;2022-10-31T15:40:19;9;8;6
24012;PMS7003;12220;50.194;18.948;2022-10-31T15:42:22;6;3;3
24012;PMS7003;12220;50.194;18.948;2022-10-31T15:44:31;3;3;3
24012;PMS7003;12220;50.194;18.948;2022-10-31T15:46:41;6;6;4
24012;PMS7003;12220;50.194;18.948;2022-10-31T15:48:44;4;4;3
24012;PMS7003;12220;50.194;18.948;2022-10-31T15:50:48;5;5;4
24012;PMS7003;12220;50.194;18.948;2022-10-31T15:52:56;7;7;4
24012;PMS7003;12220;50.194;18.948;2022-10-31T15:55:00;8;5;4
24012;PMS7003;12220;50.194;18.948;2022-10-31T15:57:09;6;6;4
24012;PMS7003;12220;50.194;18.948;2022-10-31T15:59:13;8;7;6
24012;PMS7003;12220;50.194;18.948;2022-10-31T16:01:21;4;4;3
24012;PMS7003;12220;50.194;18.948;2022-10-31T16:03:31;7;7;5
24012;PMS7003;12220;50.194;18.948;2022-10-31T16:05:47;7;7;6
24012;PMS7003;12220;50.194;18.948;2022-10-31T16:07:48;8;8;6
24012;PMS7003;12220;50.194;18.948;2022-10-31T16:12:01;11;11;9
24012;PMS7003;12220;50.194;18.948;2022-10-31T16:14:07;15;15;11